Time;durP1;ratioP1;P1;durP2;ratioP2;P2;SDS_P1;SDS_P2;PMS_P1;PMS_P2;Temp;Humidity;BMP_temperature;BMP_pressure;BME280_temperature;BME280_humidity;BME280_pressure;Samples;Min_cycle;Max_cycle;Signal;HPM_P1;HPM_P2
2021/08/29 00:01:46;;;;;;;11.35;9.20;;;14.20;99.90;;;;;;5077907;28;20123;-58
2021/08/29 00:04:11;;;;;;;17.67;8.68;;;14.20;99.90;;;;;;5090093;28;20035;-58
2021/08/29 00:06:37;;;;;;;12.57;8.93;;;14.20;99.90;;;;;;5105912;28;20613;-59
2021/08/29 00:09:05;;;;;;;15.52;8.55;;;14.20;99.90;;;;;;5098314;28;20114;-61
2021/08/29 00:11:31;;;;;;;11.25;8.73;;;14.20;99.90;;;;;;5094348;28;20496;-59
2021/08/29 00:13:57;;;;;;;13.85;8.48;;;14.20;99.90;;;;;;5089434;28;20035;-61
2021/08/29 00:16:22;;;;;;;14.02;8.10;;;14.20;99.90;;;;;;5093559;28;20091;-61
2021/08/29 00:18:48;;;;;;;12.10;7.90;;;14.20;99.90;;;;;;5088659;28;20032;-60
2021/08/29 00:21:13;;;;;;;11.68;7.15;;;14.20;99.90;;;;;;5089834;28;20107;-59
2021/08/29 00:23:39;;;;;;;9.05;7.13;;;14.20;99.90;;;;;;5090128;28;20572;-61
2021/08/29 00:26:04;;;;;;;11.43;7.35;;;14.20;99.90;;;;;;5092492;28;20028;-60
2021/08/29 00:28:30;;;;;;;16.20;8.32;;;14.20;99.90;;;;;;5093889;28;20024;-61
2021/08/29 00:30:55;;;;;;;11.18;6.50;;;14.20;99.90;;;;;;5090257;28;20019;-61
2021/08/29 00:33:21;;;;;;;12.93;7.57;;;14.20;99.90;;;;;;5093687;28;20106;-61
2021/08/29 00:35:46;;;;;;;15.73;7.80;;;14.20;99.90;;;;;;5099151;28;20036;-60
2021/08/29 00:38:12;;;;;;;10.40;7.88;;;14.20;99.90;;;;;;5100168;28;20542;-56
2021/08/29 00:40:38;;;;;;;15.32;9.13;;;14.20;99.90;;;;;;5095695;28;20512;-60
2021/08/29 00:43:03;;;;;;;12.98;8.75;;;14.10;99.90;;;;;;5091405;28;20016;-60
2021/08/29 00:45:29;;;;;;;11.05;8.13;;;14.20;99.90;;;;;;5093598;28;20137;-60
2021/08/29 00:47:55;;;;;;;13.55;9.55;;;14.20;99.90;;;;;;5093751;28;20386;-60
2021/08/29 00:50:20;;;;;;;12.00;9.20;;;14.20;99.90;;;;;;5096972;28;20039;-61
2021/08/29 00:52:46;;;;;;;13.07;9.57;;;14.20;99.90;;;;;;5088008;28;20589;-59
2021/08/29 00:55:12;;;;;;;14.82;10.02;;;14.20;99.90;;;;;;5093387;28;20494;-60
2021/08/29 00:57:41;;;;;;;17.08;9.73;;;14.20;99.90;;;;;;5091845;28;20058;-61
2021/08/29 01:00:09;;;;;;;14.82;10.82;;;14.20;99.90;;;;;;5092330;28;20650;-60
2021/08/29 01:02:35;;;;;;;14.57;9.77;;;14.10;99.90;;;;;;5081172;28;20506;-57
2021/08/29 01:05:08;;;;;;;14.57;9.65;;;14.00;99.90;;;;;;5093582;28;20024;-59
2021/08/29 01:07:38;;;;;;;14.13;10.20;;;14.10;99.90;;;;;;5103942;28;20506;-59
2021/08/29 01:10:10;;;;;;;15.02;9.75;;;14.00;99.90;;;;;;5097272;28;20394;-60
2021/08/29 01:12:38;;;;;;;13.10;9.82;;;14.00;99.90;;;;;;5101400;28;20101;-59
2021/08/29 01:15:05;;;;;;;20.95;10.48;;;14.00;99.90;;;;;;5105403;28;21834;-61
2021/08/29 01:17:35;;;;;;;20.02;11.68;;;14.00;99.90;;;;;;5098660;28;20020;-59
2021/08/29 01:20:15;;;;;;;18.35;11.40;;;14.10;99.90;;;;;;5095495;28;20024;-60
2021/08/29 01:22:42;;;;;;;23.92;12.63;;;14.00;99.90;;;;;;5098965;28;20106;-59
2021/08/29 01:25:13;;;;;;;20.75;13.95;;;14.00;99.90;;;;;;5101260;28;20103;-59
2021/08/29 01:27:46;;;;;;;17.88;13.57;;;14.00;99.90;;;;;;5096184;28;20028;-59
2021/08/29 01:30:12;;;;;;;20.83;12.65;;;14.00;99.90;;;;;;5098582;28;20050;-61
2021/08/29 01:32:39;;;;;;;17.48;13.52;;;14.00;99.90;;;;;;5100213;28;20069;-56
2021/08/29 01:35:06;;;;;;;19.90;14.73;;;14.00;99.90;;;;;;5091951;28;20371;-59
2021/08/29 01:37:33;;;;;;;23.70;15.85;;;14.00;99.90;;;;;;5109724;28;20050;-58
2021/08/29 01:40:01;;;;;;;22.27;16.35;;;14.00;99.90;;;;;;5099644;28;20501;-59
2021/08/29 01:42:28;;;;;;;25.75;17.55;;;13.90;99.90;;;;;;5107036;28;20035;-59
2021/08/29 01:44:54;;;;;;;21.48;17.08;;;14.00;99.90;;;;;;5098092;28;20120;-61
2021/08/29 01:47:20;;;;;;;26.48;18.60;;;14.00;99.90;;;;;;5105213;28;20481;-59
2021/08/29 01:49:46;;;;;;;29.17;20.58;;;14.00;99.90;;;;;;5078788;28;20525;-59
2021/08/29 01:52:13;;;;;;;28.45;20.42;;;14.00;99.90;;;;;;5092554;28;20032;-60
2021/08/29 01:54:39;;;;;;;26.10;21.08;;;14.00;99.90;;;;;;5100441;28;20031;-60
2021/08/29 01:57:13;;;;;;;29.30;21.45;;;14.00;99.90;;;;;;5092617;28;20085;-61
2021/08/29 01:59:43;;;;;;;29.00;21.80;;;14.00;99.90;;;;;;5093943;28;20115;-58
2021/08/29 02:02:13;;;;;;;28.58;21.75;;;14.00;99.90;;;;;;5082038;28;20116;-59
2021/08/29 02:04:40;;;;;;;30.80;22.88;;;14.00;99.90;;;;;;5105842;28;20019;-59
2021/08/29 02:07:12;;;;;;;30.33;21.10;;;14.00;99.90;;;;;;5105019;28;20482;-57
2021/08/29 02:09:42;;;;;;;24.80;20.15;;;14.00;99.90;;;;;;5094264;28;20036;-62
2021/08/29 02:12:09;;;;;;;30.08;20.95;;;14.00;99.90;;;;;;5091925;28;20047;-60
2021/08/29 02:14:46;;;;;;;26.27;19.20;;;14.00;99.90;;;;;;5091820;28;20509;-58
2021/08/29 02:17:12;;;;;;;33.00;19.35;;;14.10;99.90;;;;;;5073571;28;20036;-61
2021/08/29 02:19:39;;;;;;;26.40;19.33;;;14.00;99.90;;;;;;5092985;28;20054;-61
2021/08/29 02:22:06;;;;;;;26.02;18.65;;;14.00;99.90;;;;;;5098099;28;20149;-60
2021/08/29 02:24:32;;;;;;;22.73;18.83;;;14.00;99.90;;;;;;5097487;28;20020;-59
2021/08/29 02:26:58;;;;;;;23.17;19.60;;;14.00;99.90;;;;;;5092417;28;20023;-56
2021/08/29 02:29:25;;;;;;;22.75;18.15;;;14.00;99.90;;;;;;5098491;28;20032;-56
2021/08/29 02:31:51;;;;;;;23.73;18.83;;;14.00;99.90;;;;;;5104586;28;20398;-57
2021/08/29 02:34:18;;;;;;;29.77;20.33;;;14.00;99.90;;;;;;5092526;28;20032;-58
2021/08/29 02:36:44;;;;;;;34.88;20.77;;;14.00;99.90;;;;;;5096432;28;20027;-56
2021/08/29 02:39:11;;;;;;;35.85;20.85;;;14.00;99.90;;;;;;5105521;28;20058;-57
2021/08/29 02:41:38;;;;;;;23.85;19.00;;;14.00;99.90;;;;;;5094796;28;20495;-56
2021/08/29 02:44:05;;;;;;;25.52;19.42;;;14.00;99.90;;;;;;5099239;28;20119;-58
2021/08/29 02:46:31;;;;;;;30.25;21.42;;;14.00;99.90;;;;;;5109866;22;20047;-58
2021/08/29 02:48:57;;;;;;;25.42;20.25;;;14.00;99.90;;;;;;5086426;28;20032;-55
2021/08/29 02:51:24;;;;;;;30.85;20.77;;;14.00;99.90;;;;;;5087627;28;20043;-56
2021/08/29 02:53:50;;;;;;;26.65;19.40;;;14.00;99.90;;;;;;5081327;28;20074;-56
2021/08/29 02:56:19;;;;;;;26.73;20.80;;;14.00;99.90;;;;;;5073472;28;20032;-58
2021/08/29 02:58:45;;;;;;;34.10;20.63;;;14.00;99.90;;;;;;5088887;28;20036;-54
2021/08/29 03:01:11;;;;;;;31.60;21.15;;;14.00;99.90;;;;;;5081999;28;20525;-56
2021/08/29 03:03:37;;;;;;;34.55;22.13;;;13.90;99.90;;;;;;5072249;28;20052;-55
2021/08/29 03:06:03;;;;;;;29.17;20.45;;;14.00;99.90;;;;;;5071204;28;20474;-57
2021/08/29 03:08:29;;;;;;;30.90;20.20;;;13.90;99.90;;;;;;5090308;28;20127;-57
2021/08/29 03:10:55;;;;;;;28.70;21.88;;;13.90;99.90;;;;;;5087418;28;20102;-57
2021/08/29 03:13:21;;;;;;;26.60;19.98;;;14.00;99.90;;;;;;5090342;28;20032;-58
2021/08/29 03:15:47;;;;;;;27.67;18.70;;;14.00;99.90;;;;;;5090121;28;20490;-55
2021/08/29 03:18:13;;;;;;;27.83;20.50;;;14.00;99.90;;;;;;5090939;28;20063;-58
2021/08/29 03:20:40;;;;;;;33.92;22.75;;;13.90;99.90;;;;;;5083920;28;20367;-58
2021/08/29 03:23:06;;;;;;;27.63;22.40;;;13.90;99.90;;;;;;5090308;28;20070;-56
2021/08/29 03:25:32;;;;;;;28.50;21.88;;;13.90;99.90;;;;;;5077407;28;20491;-53
2021/08/29 03:27:57;;;;;;;33.35;22.98;;;13.90;99.90;;;;;;5076941;28;20028;-56
2021/08/29 03:30:23;;;;;;;30.90;23.75;;;13.90;99.90;;;;;;5084412;28;20024;-54
2021/08/29 03:32:49;;;;;;;35.67;26.17;;;14.00;99.90;;;;;;5089983;28;20102;-58
2021/08/29 03:35:15;;;;;;;36.05;25.08;;;14.00;99.90;;;;;;5089650;28;20750;-56
2021/08/29 03:37:41;;;;;;;33.65;24.73;;;14.00;99.90;;;;;;5090802;28;20035;-57
2021/08/29 03:40:08;;;;;;;36.15;24.00;;;13.90;99.90;;;;;;5081629;28;20024;-57
2021/08/29 03:42:35;;;;;;;35.55;22.63;;;13.90;99.90;;;;;;5090539;28;20027;-57
2021/08/29 03:45:02;;;;;;;32.25;24.48;;;13.90;99.90;;;;;;5077424;28;20024;-56
2021/08/29 03:47:28;;;;;;;33.78;23.98;;;13.90;99.90;;;;;;5090357;28;20016;-57
2021/08/29 03:49:54;;;;;;;40.13;25.40;;;13.90;99.90;;;;;;5083978;28;20032;-59
2021/08/29 03:52:20;;;;;;;34.70;23.75;;;13.90;99.90;;;;;;5089567;28;20024;-57
2021/08/29 03:54:46;;;;;;;36.97;24.48;;;13.90;99.90;;;;;;5085997;28;20024;-57
2021/08/29 03:57:13;;;;;;;31.17;22.48;;;13.90;99.90;;;;;;5082792;28;20028;-57
2021/08/29 03:59:40;;;;;;;35.67;25.20;;;13.90;99.90;;;;;;5078988;28;20035;-57
2021/08/29 04:02:06;;;;;;;36.03;25.95;;;13.80;99.90;;;;;;5093632;28;20123;-57
2021/08/29 04:04:33;;;;;;;38.67;26.95;;;13.80;99.90;;;;;;5072322;28;20158;-58
2021/08/29 04:07:02;;;;;;;39.63;28.52;;;13.90;99.90;;;;;;5091231;28;20390;-57
2021/08/29 04:09:30;;;;;;;41.05;29.42;;;13.80;99.90;;;;;;5089430;28;20036;-56
2021/08/29 04:11:57;;;;;;;35.55;28.80;;;13.90;99.90;;;;;;5090232;28;20031;-57
2021/08/29 04:14:23;;;;;;;42.03;29.13;;;13.90;99.90;;;;;;5093106;28;20056;-55
2021/08/29 04:16:49;;;;;;;39.20;30.17;;;13.90;99.90;;;;;;5093649;28;20505;-59
2021/08/29 04:19:16;;;;;;;44.17;31.63;;;13.90;99.90;;;;;;5092118;28;20032;-53
2021/08/29 04:21:42;;;;;;;44.88;32.75;;;13.80;99.90;;;;;;5091779;28;20427;-56
2021/08/29 04:24:08;;;;;;;37.72;30.85;;;13.80;99.90;;;;;;5091421;28;20536;-57
2021/08/29 04:26:34;;;;;;;40.97;31.65;;;13.90;99.90;;;;;;5093461;28;20028;-58
2021/08/29 04:29:00;;;;;;;41.33;31.75;;;13.90;99.90;;;;;;5092411;28;20024;-58
2021/08/29 04:31:31;;;;;;;47.13;32.58;;;13.80;99.90;;;;;;5092635;28;20031;-56
2021/08/29 04:34:00;;;;;;;46.63;33.60;;;13.80;99.90;;;;;;5093979;28;20490;-57
2021/08/29 04:36:26;;;;;;;47.78;32.47;;;13.80;99.90;;;;;;5093333;28;20035;-57
2021/08/29 04:38:51;;;;;;;47.30;33.70;;;13.80;99.90;;;;;;5092577;28;20394;-59
2021/08/29 04:41:18;;;;;;;50.67;33.60;;;13.90;99.90;;;;;;5089708;28;20397;-57
2021/08/29 04:43:44;;;;;;;47.30;33.47;;;13.80;99.90;;;;;;5093095;28;20304;-55
2021/08/29 04:46:11;;;;;;;46.42;32.78;;;13.80;99.90;;;;;;5092164;28;20478;-56
2021/08/29 04:48:37;;;;;;;54.40;36.63;;;13.80;99.90;;;;;;5092319;28;20035;-55
2021/08/29 04:51:02;;;;;;;45.00;33.20;;;13.80;99.90;;;;;;5091942;28;20028;-57
2021/08/29 04:53:28;;;;;;;45.10;31.85;;;13.80;99.90;;;;;;5092534;28;20020;-57
2021/08/29 04:55:53;;;;;;;48.22;32.60;;;13.80;99.90;;;;;;5092174;28;21745;-56
2021/08/29 04:58:19;;;;;;;44.45;31.65;;;13.80;99.90;;;;;;5092898;28;20073;-57
2021/08/29 05:00:44;;;;;;;46.13;32.72;;;13.90;99.90;;;;;;5091805;28;20152;-57
2021/08/29 05:03:10;;;;;;;42.00;31.58;;;13.90;99.90;;;;;;5093534;28;20036;-53
2021/08/29 05:05:36;;;;;;;49.65;31.77;;;13.90;99.90;;;;;;5072591;28;20040;-56
2021/08/29 05:08:01;;;;;;;49.88;34.15;;;13.90;99.90;;;;;;5092328;28;20421;-58
2021/08/29 05:10:27;;;;;;;49.13;34.65;;;14.00;99.90;;;;;;5090426;28;20057;-56
2021/08/29 05:12:53;;;;;;;51.78;32.50;;;13.90;99.90;;;;;;5092835;28;20025;-56
2021/08/29 05:15:18;;;;;;;43.95;32.08;;;13.90;99.90;;;;;;5091031;28;20081;-54
2021/08/29 05:17:44;;;;;;;46.88;30.60;;;13.90;99.90;;;;;;5092734;28;20553;-55
2021/08/29 05:20:10;;;;;;;45.75;30.63;;;13.90;99.90;;;;;;5091532;28;20077;-57
2021/08/29 05:22:36;;;;;;;43.92;30.70;;;13.90;99.90;;;;;;5091902;28;20025;-55
2021/08/29 05:25:01;;;;;;;44.33;30.95;;;14.00;99.90;;;;;;5083569;28;20536;-53
2021/08/29 05:27:27;;;;;;;42.78;27.98;;;14.00;99.90;;;;;;5089953;28;20027;-57
2021/08/29 05:29:53;;;;;;;40.78;29.77;;;14.10;99.90;;;;;;5090050;28;20028;-56
2021/08/29 05:32:18;;;;;;;39.55;28.48;;;14.00;99.90;;;;;;5092039;28;20081;-57
2021/08/29 05:34:44;;;;;;;35.35;27.25;;;14.10;99.90;;;;;;5089616;28;20028;-58
2021/08/29 05:37:09;;;;;;;44.80;28.50;;;14.10;99.90;;;;;;5090594;28;20103;-56
2021/08/29 05:39:35;;;;;;;50.30;30.17;;;14.00;99.90;;;;;;5091401;28;20060;-57
2021/08/29 05:42:00;;;;;;;43.55;27.80;;;14.00;99.90;;;;;;5092669;28;20027;-56
2021/08/29 05:44:26;;;;;;;53.47;29.20;;;14.00;99.90;;;;;;5091547;28;20027;-56
2021/08/29 06:15:44;;;;;;;27.45;21.25;;;14.10;99.90;;;;;;5087331;28;20393;-58
2021/08/29 06:18:10;;;;;;;30.73;22.35;;;14.40;99.90;;;;;;5087633;28;20105;-57
2021/08/29 06:20:36;;;;;;;30.33;22.58;;;14.40;99.90;;;;;;5086356;28;20060;-58
2021/08/29 06:23:01;;;;;;;36.17;23.42;;;14.40;99.90;;;;;;5069621;23;20064;-56
2021/08/29 06:25:27;;;;;;;34.50;24.50;;;14.40;99.90;;;;;;5046623;28;20574;-58
2021/08/29 06:27:52;;;;;;;34.97;26.15;;;14.30;99.90;;;;;;5048421;28;20113;-59
2021/08/29 06:30:18;;;;;;;44.60;27.65;;;14.40;99.90;;;;;;5045637;28;20040;-59
2021/08/29 06:32:43;;;;;;;38.28;26.95;;;14.40;99.90;;;;;;5048832;28;20025;-60
2021/08/29 06:35:09;;;;;;;44.08;28.55;;;14.40;99.90;;;;;;5046689;28;20096;-58
2021/08/29 06:37:35;;;;;;;41.60;28.80;;;14.40;99.90;;;;;;5047604;28;20036;-58
2021/08/29 06:40:00;;;;;;;43.72;27.85;;;14.40;99.90;;;;;;5047395;28;20025;-58
2021/08/29 06:42:26;;;;;;;40.20;28.52;;;14.40;99.90;;;;;;5047441;28;20522;-59
2021/08/29 06:44:51;;;;;;;38.85;27.70;;;14.40;99.90;;;;;;5047700;28;20040;-58
2021/08/29 06:47:17;;;;;;;44.25;28.20;;;14.40;99.90;;;;;;5047997;28;20037;-58
2021/08/29 06:49:42;;;;;;;37.55;26.15;;;14.40;99.90;;;;;;5047367;28;20029;-59
2021/08/29 06:52:08;;;;;;;44.60;26.75;;;14.40;99.90;;;;;;5045355;28;20029;-58
2021/08/29 06:54:33;;;;;;;37.85;25.00;;;14.40;99.90;;;;;;5047342;28;20033;-56
2021/08/29 06:56:59;;;;;;;36.78;26.13;;;14.40;99.90;;;;;;5046744;28;20036;-60
2021/08/29 06:59:24;;;;;;;34.38;24.65;;;14.40;99.90;;;;;;5047198;28;20029;-59
2021/08/29 07:01:50;;;;;;;37.90;26.33;;;14.40;99.90;;;;;;4998947;28;20038;-59
2021/08/29 07:04:15;;;;;;;41.90;25.77;;;14.50;99.90;;;;;;5004049;28;20046;-60
2021/08/29 07:06:41;;;;;;;35.50;25.48;;;14.50;99.90;;;;;;5007303;28;20034;-59
2021/08/29 07:09:07;;;;;;;32.05;25.30;;;14.50;99.90;;;;;;5013418;28;20034;-59
2021/08/29 07:11:33;;;;;;;36.60;24.83;;;14.60;99.90;;;;;;5011118;28;20022;-58
2021/08/29 07:13:59;;;;;;;33.78;25.80;;;14.60;99.90;;;;;;5006577;28;20023;-58
2021/08/29 07:16:25;;;;;;;31.27;22.70;;;14.70;99.90;;;;;;5004652;28;20092;-59
2021/08/29 07:18:50;;;;;;;30.83;21.95;;;14.80;99.90;;;;;;5013720;28;20053;-58
2021/08/29 07:21:16;;;;;;;26.02;21.38;;;15.00;99.90;;;;;;5011976;28;20084;-60
2021/08/29 07:23:41;;;;;;;33.00;21.48;;;15.10;99.90;;;;;;5002098;28;20038;-59
2021/08/29 07:26:09;;;;;;;34.72;20.88;;;15.10;99.90;;;;;;5003766;28;20038;-60
2021/08/29 07:28:34;;;;;;;28.08;20.15;;;15.20;99.90;;;;;;5013231;28;20037;-58
2021/08/29 07:31:00;;;;;;;28.60;20.33;;;15.30;99.90;;;;;;5012553;28;20556;-59
2021/08/29 07:33:25;;;;;;;28.02;21.20;;;15.20;99.90;;;;;;5011061;28;20061;-61
2021/08/29 07:35:51;;;;;;;33.30;19.92;;;15.20;99.90;;;;;;5005979;28;20404;-58
2021/08/29 07:38:16;;;;;;;33.67;22.58;;;15.10;99.90;;;;;;5012860;28;20434;-59
2021/08/29 07:40:42;;;;;;;32.65;20.88;;;15.10;99.90;;;;;;5012481;28;20034;-60
2021/08/29 07:43:07;;;;;;;32.70;21.90;;;15.10;99.90;;;;;;5013262;28;20472;-60
2021/08/29 07:45:33;;;;;;;21.60;18.08;;;15.10;99.90;;;;;;4997937;28;20074;-59
2021/08/29 07:47:59;;;;;;;32.17;18.20;;;15.20;99.90;;;;;;5013288;28;20076;-58
2021/08/29 07:50:24;;;;;;;35.25;19.38;;;15.20;99.90;;;;;;5011708;28;20076;-57
2021/08/29 07:52:51;;;;;;;24.92;19.02;;;15.20;99.90;;;;;;5008345;28;20093;-59
2021/08/29 07:55:16;;;;;;;27.65;17.65;;;15.20;99.90;;;;;;5009396;28;20032;-61
2021/08/29 07:57:42;;;;;;;29.98;17.92;;;15.20;99.90;;;;;;5012893;28;20014;-59
2021/08/29 08:00:08;;;;;;;30.00;19.25;;;15.20;99.90;;;;;;4996407;28;20029;-61
2021/08/29 08:02:34;;;;;;;30.33;18.35;;;15.20;99.90;;;;;;5005960;28;20051;-60
2021/08/29 08:05:00;;;;;;;25.90;18.20;;;15.20;99.90;;;;;;5009145;28;20076;-61
2021/08/29 08:07:26;;;;;;;28.40;18.17;;;15.20;99.90;;;;;;5010219;28;20484;-60
2021/08/29 08:09:51;;;;;;;23.15;17.23;;;15.20;99.90;;;;;;4992650;28;20042;-60
2021/08/29 08:12:17;;;;;;;24.58;16.40;;;15.20;99.90;;;;;;5009426;28;20553;-60
2021/08/29 08:14:43;;;;;;;24.95;17.45;;;15.30;99.90;;;;;;5000810;28;20030;-59
2021/08/29 08:17:09;;;;;;;27.67;16.60;;;15.20;99.90;;;;;;5009583;28;20040;-61
2021/08/29 08:19:35;;;;;;;22.48;15.43;;;15.20;99.90;;;;;;5012060;28;20075;-59
2021/08/29 08:22:01;;;;;;;28.85;16.55;;;15.10;99.90;;;;;;5011023;28;20037;-60
2021/08/29 08:24:27;;;;;;;30.40;17.98;;;15.10;99.90;;;;;;4995853;28;20037;-59
2021/08/29 08:26:52;;;;;;;26.48;19.35;;;15.10;99.90;;;;;;5007600;28;20373;-58
2021/08/29 08:29:18;;;;;;;28.02;17.92;;;15.00;99.90;;;;;;5008869;28;20076;-61
2021/08/29 08:31:43;;;;;;;29.45;17.35;;;15.00;99.90;;;;;;5010543;28;20499;-61
2021/08/29 08:34:09;;;;;;;26.30;17.85;;;15.00;99.90;;;;;;5005230;28;20014;-58
2021/08/29 08:36:35;;;;;;;26.50;19.08;;;15.10;99.90;;;;;;5004493;28;20438;-59
2021/08/29 08:39:00;;;;;;;26.02;18.30;;;15.10;99.90;;;;;;5011494;28;20029;-60
2021/08/29 08:41:27;;;;;;;27.52;17.77;;;15.10;99.90;;;;;;5010734;28;20037;-59
2021/08/29 08:43:53;;;;;;;27.58;18.70;;;15.10;99.90;;;;;;5007513;28;20393;-60
2021/08/29 08:46:20;;;;;;;26.75;15.70;;;15.20;99.90;;;;;;5005296;28;20022;-58
2021/08/29 08:48:49;;;;;;;20.73;16.65;;;15.30;99.90;;;;;;5011478;28;20068;-60
2021/08/29 08:51:20;;;;;;;23.27;15.93;;;15.40;99.90;;;;;;5006839;28;20109;-60
2021/08/29 08:53:47;;;;;;;23.88;17.45;;;15.40;99.90;;;;;;5011908;28;20671;-59
2021/08/29 08:56:16;;;;;;;31.42;18.63;;;15.50;99.90;;;;;;5008061;28;20026;-59
2021/08/29 08:58:42;;;;;;;21.63;16.92;;;15.40;99.90;;;;;;4994306;28;20097;-60
2021/08/29 09:01:08;;;;;;;20.92;16.65;;;15.50;99.90;;;;;;4993222;28;20091;-59
2021/08/29 09:03:36;;;;;;;16.85;14.50;;;15.40;99.90;;;;;;5011732;28;20057;-60
2021/08/29 09:06:04;;;;;;;22.27;14.98;;;15.30;99.90;;;;;;5009231;28;20025;-60
2021/08/29 09:08:30;;;;;;;24.60;15.60;;;15.30;99.90;;;;;;4995865;28;20052;-60
2021/08/29 09:10:56;;;;;;;23.48;16.13;;;15.30;99.90;;;;;;5010496;28;20021;-60
2021/08/29 09:13:22;;;;;;;18.13;15.55;;;15.30;99.90;;;;;;5010807;28;20021;-55
2021/08/29 09:15:47;;;;;;;29.25;16.67;;;15.30;99.90;;;;;;5010432;28;20018;-59
2021/08/29 09:18:14;;;;;;;23.05;15.10;;;15.30;99.90;;;;;;5010764;28;20033;-58
2021/08/29 09:20:40;;;;;;;20.83;15.63;;;15.20;99.90;;;;;;5010392;28;20401;-59
2021/08/29 09:23:11;;;;;;;23.02;16.77;;;15.20;99.90;;;;;;5011079;28;20578;-60
2021/08/29 09:25:43;;;;;;;23.15;15.48;;;15.10;99.90;;;;;;5008089;28;20468;-59
2021/08/29 09:28:12;;;;;;;19.55;16.08;;;15.00;99.90;;;;;;5010888;28;20026;-58
2021/08/29 09:30:45;;;;;;;28.10;17.13;;;15.00;99.90;;;;;;4995815;28;20492;-62
2021/08/29 09:33:11;;;;;;;20.83;14.13;;;15.00;99.90;;;;;;5011358;28;20492;-60
2021/08/29 09:35:37;;;;;;;18.33;12.68;;;15.10;99.90;;;;;;5008395;28;20034;-60
2021/08/29 09:38:11;;;;;;;19.08;12.38;;;15.20;99.90;;;;;;5011242;28;20056;-57
2021/08/29 09:40:38;;;;;;;14.70;11.88;;;15.30;99.90;;;;;;4995558;28;20029;-59
2021/08/29 09:43:06;;;;;;;14.23;11.52;;;15.30;99.90;;;;;;5010882;28;20060;-58
2021/08/29 09:45:37;;;;;;;16.67;10.43;;;15.30;99.90;;;;;;5010498;28;20061;-59
2021/08/29 09:48:06;;;;;;;10.18;7.35;;;15.40;99.90;;;;;;5011266;28;20026;-59
2021/08/29 09:50:35;;;;;;;10.57;8.00;;;15.40;99.90;;;;;;4995427;28;20026;-59
2021/08/29 09:53:15;;;;;;;10.05;6.43;;;15.60;99.90;;;;;;5010828;28;20101;-58
2021/08/29 09:55:43;;;;;;;9.02;6.47;;;15.80;99.90;;;;;;5010466;28;20029;-59
2021/08/29 09:58:32;;;;;;;12.18;6.35;;;16.00;99.90;;;;;;5010905;28;20102;-60
2021/08/29 10:01:17;;;;;;;7.45;5.75;;;16.00;99.90;;;;;;5006447;28;20030;-59
2021/08/29 10:03:48;;;;;;;9.15;6.38;;;16.00;99.90;;;;;;4986708;28;20034;-61
2021/08/29 10:06:22;;;;;;;7.32;5.82;;;15.90;99.90;;;;;;5010331;28;20052;-59
2021/08/29 10:08:47;;;;;;;7.05;6.13;;;15.90;99.90;;;;;;5001088;28;20030;-60
2021/08/29 10:11:14;;;;;;;7.50;5.85;;;15.80;99.90;;;;;;5000173;28;20025;-60
2021/08/29 10:13:40;;;;;;;6.18;4.97;;;15.70;99.90;;;;;;5010362;28;20029;-59
2021/08/29 10:16:06;;;;;;;10.30;5.50;;;15.60;99.90;;;;;;5010371;28;20072;-61
2021/08/29 10:18:36;;;;;;;6.70;4.78;;;15.50;99.90;;;;;;5006212;28;20036;-60
2021/08/29 10:21:02;;;;;;;10.75;6.53;;;15.40;99.90;;;;;;5009752;28;20026;-60
2021/08/29 10:23:29;;;;;;;9.63;5.78;;;15.30;99.90;;;;;;5010565;28;20044;-57
2021/08/29 10:25:57;;;;;;;7.60;5.85;;;15.40;99.90;;;;;;5010013;28;20049;-59
2021/08/29 10:28:31;;;;;;;8.18;5.45;;;15.40;99.90;;;;;;5008451;28;20022;-59
2021/08/29 10:30:59;;;;;;;9.52;5.25;;;15.40;99.90;;;;;;5006229;28;20022;-60
2021/08/29 10:33:25;;;;;;;7.60;5.30;;;15.40;99.90;;;;;;5009129;28;20428;-60
2021/08/29 10:35:51;;;;;;;8.23;6.00;;;15.50;99.90;;;;;;4997927;28;20033;-58
2021/08/29 10:38:21;;;;;;;9.02;5.80;;;15.50;99.90;;;;;;5010689;28;20053;-60
2021/08/29 10:40:49;;;;;;;6.65;5.40;;;15.30;99.90;;;;;;5013263;28;20025;-60
2021/08/29 10:43:15;;;;;;;8.95;4.75;;;15.60;99.90;;;;;;5013794;28;20018;-59
2021/08/29 10:45:41;;;;;;;8.15;5.68;;;15.50;99.90;;;;;;5013635;28;20029;-61
2021/08/29 10:48:09;;;;;;;7.00;5.80;;;15.50;99.90;;;;;;5011532;28;20041;-61
2021/08/29 10:50:36;;;;;;;5.63;5.13;;;15.60;99.90;;;;;;5012856;28;20038;-60
2021/08/29 10:53:01;;;;;;;6.30;4.38;;;15.50;99.90;;;;;;5013344;28;20081;-61
2021/08/29 10:55:30;;;;;;;7.60;3.85;;;15.60;99.90;;;;;;5011097;28;20022;-61
2021/08/29 10:58:03;;;;;;;3.95;3.17;;;15.40;99.90;;;;;;5012158;28;20436;-60
2021/08/29 11:00:28;;;;;;;5.28;3.47;;;15.40;99.90;;;;;;5011176;28;21638;-57
2021/08/29 11:02:54;;;;;;;4.53;3.22;;;15.50;99.90;;;;;;5013334;28;20105;-57
2021/08/29 11:05:29;;;;;;;3.13;2.60;;;15.50;99.90;;;;;;4993648;28;20108;-61
2021/08/29 11:07:56;;;;;;;3.78;2.83;;;15.60;99.90;;;;;;5013234;28;20101;-58
2021/08/29 11:10:36;;;;;;;3.78;2.55;;;15.70;99.90;;;;;;5012210;28;20026;-61
2021/08/29 11:13:28;;;;;;;3.92;3.20;;;15.70;99.90;;;;;;5010058;28;20057;-57
2021/08/29 11:16:15;;;;;;;4.28;2.90;;;15.80;99.90;;;;;;4988959;28;20100;-58
2021/08/29 11:18:59;;;;;;;2.72;2.10;;;15.90;99.90;;;;;;5011593;28;20038;-58
2021/08/29 11:21:26;;;;;;;4.63;2.58;;;15.90;99.90;;;;;;5010983;28;20022;-57
2021/08/29 11:23:51;;;;;;;4.75;2.53;;;15.90;99.90;;;;;;5012739;28;20171;-59
2021/08/29 11:26:35;;;;;;;3.53;2.42;;;15.80;99.90;;;;;;5010745;28;20104;-59
2021/08/29 11:29:02;;;;;;;3.25;2.75;;;15.90;99.90;;;;;;5010335;28;20030;-58
2021/08/29 11:31:52;;;;;;;4.00;2.45;;;15.90;99.90;;;;;;5011029;28;20049;-58
2021/08/29 11:34:19;;;;;;;2.35;1.73;;;15.90;99.90;;;;;;5011165;28;20435;-59
2021/08/29 11:36:45;;;;;;;3.70;1.80;;;15.90;99.90;;;;;;5011290;28;20081;-57
2021/08/29 11:39:35;;;;;;;2.53;1.73;;;16.10;99.90;;;;;;5011133;28;20037;-58
2021/08/29 11:42:18;;;;;;;1.67;1.50;;;16.20;99.90;;;;;;5009751;28;20041;-59
2021/08/29 11:44:44;;;;;;;2.20;1.40;;;16.20;99.90;;;;;;5010026;28;20033;-58
2021/08/29 11:47:11;;;;;;;3.15;1.13;;;16.40;99.90;;;;;;5009899;28;20101;-58
2021/08/29 11:49:37;;;;;;;2.30;1.10;;;16.50;99.90;;;;;;5011424;28;20488;-58
2021/08/29 11:52:03;;;;;;;1.88;1.30;;;16.60;99.90;;;;;;5008843;28;20025;-59
2021/08/29 11:54:29;;;;;;;2.78;1.38;;;16.50;99.90;;;;;;5011761;28;20141;-57
2021/08/29 11:56:55;;;;;;;2.22;1.27;;;16.40;99.90;;;;;;5011080;28;20104;-55
2021/08/29 11:59:34;;;;;;;3.22;1.80;;;16.50;99.90;;;;;;5011948;28;20026;-53
2021/08/29 12:02:01;;;;;;;1.65;1.48;;;16.60;99.90;;;;;;5010422;28;20029;-57
2021/08/29 12:04:27;;;;;;;1.40;1.30;;;16.60;99.90;;;;;;5012096;28;20061;-58
2021/08/29 12:07:05;;;;;;;2.60;1.80;;;16.70;99.90;;;;;;4993868;28;20038;-59
2021/08/29 12:09:39;;;;;;;2.35;1.77;;;16.40;99.90;;;;;;5011299;28;20037;-62
2021/08/29 12:12:06;;;;;;;3.10;1.70;;;16.50;99.90;;;;;;5009695;28;20424;-56
2021/08/29 12:14:31;;;;;;;2.38;2.10;;;16.50;99.90;;;;;;5017881;28;20108;-59
2021/08/29 12:17:01;;;;;;;4.75;1.92;;;16.30;99.90;;;;;;5011986;28;20109;-59
2021/08/29 12:19:35;;;;;;;2.83;2.03;;;16.30;99.90;;;;;;5011730;28;20091;-59
2021/08/29 12:22:05;;;;;;;6.15;3.20;;;16.20;99.90;;;;;;5009894;28;20041;-59
2021/08/29 12:24:33;;;;;;;3.13;2.83;;;16.20;99.90;;;;;;5012369;28;20412;-59
2021/08/29 12:27:07;;;;;;;2.70;2.50;;;16.30;99.90;;;;;;5011159;28;20033;-60
2021/08/29 12:29:43;;;;;;;3.85;3.22;;;16.10;99.90;;;;;;5011006;28;20034;-60
2021/08/29 12:32:11;;;;;;;3.85;2.88;;;16.30;99.90;;;;;;5010044;28;20026;-59
2021/08/29 12:34:37;;;;;;;3.55;2.78;;;16.30;99.90;;;;;;5010195;28;20030;-60
2021/08/29 12:37:05;;;;;;;2.88;2.58;;;16.30;99.90;;;;;;5010835;28;20511;-60
2021/08/29 12:39:30;;;;;;;3.05;2.75;;;16.30;99.90;;;;;;5011669;28;20113;-59
2021/08/29 12:42:17;;;;;;;3.40;2.47;;;16.40;99.90;;;;;;5005919;28;20168;-58
2021/08/29 12:44:42;;;;;;;3.10;2.80;;;16.40;99.90;;;;;;5006376;28;20022;-60
2021/08/29 12:47:08;;;;;;;2.60;2.22;;;16.40;99.90;;;;;;5009849;28;20614;-61
2021/08/29 12:49:34;;;;;;;4.03;3.22;;;16.60;99.90;;;;;;5008651;28;20026;-55
2021/08/29 12:52:00;;;;;;;3.05;2.55;;;16.70;99.90;;;;;;5010453;28;20088;-58
2021/08/29 12:54:27;;;;;;;5.35;2.63;;;16.90;99.90;;;;;;5010715;28;20034;-61
2021/08/29 12:56:52;;;;;;;2.97;2.67;;;16.80;99.90;;;;;;5028426;23;20054;-58
2021/08/29 12:59:28;;;;;;;2.90;2.50;;;16.90;99.90;;;;;;5009204;28;20030;-57
2021/08/29 13:01:54;;;;;;;1.83;1.70;;;17.10;99.90;;;;;;5010332;28;20036;-49
2021/08/29 13:04:24;;;;;;;4.07;2.53;;;17.40;99.90;;;;;;5010023;28;20062;-57